sensor_id;sensor_type;location;lat;lon;timestamp;pressure;altitude;pressure_sealevel;temperature;humidity
82951;BME280;72737;53.332;6.514;2024-01-15T00:02:13;99752.69;;;14.88;54.61
82951;BME280;72737;53.332;6.514;2024-01-15T00:04:39;99753.63;;;14.92;55.03
82951;BME280;72737;53.332;6.514;2024-01-15T00:07:05;99740.59;;;14.89;54.41
82951;BME280;72737;53.332;6.514;2024-01-15T00:09:30;99738.47;;;14.94;54.85
82951;BME280;72737;53.332;6.514;2024-01-15T00:11:56;99728.41;;;14.78;54.77
82951;BME280;72737;53.332;6.514;2024-01-15T00:14:22;99718.09;;;14.75;54.67
82951;BME280;72737;53.332;6.514;2024-01-15T00:16:47;99721.16;;;14.73;54.96
82951;BME280;72737;53.332;6.514;2024-01-15T00:19:15;99720.69;;;14.71;55.42
82951;BME280;72737;53.332;6.514;2024-01-15T00:21:41;99730.66;;;14.67;55.18
82951;BME280;72737;53.332;6.514;2024-01-15T00:24:06;99719.69;;;14.76;54.69
82951;BME280;72737;53.332;6.514;2024-01-15T00:26:31;99729.19;;;14.78;55.26
82951;BME280;72737;53.332;6.514;2024-01-15T00:28:57;99719.38;;;14.69;54.78
82951;BME280;72737;53.332;6.514;2024-01-15T00:31:22;99719.75;;;14.58;55.75
82951;BME280;72737;53.332;6.514;2024-01-15T00:33:47;99702.81;;;14.74;55.34
82951;BME280;72737;53.332;6.514;2024-01-15T00:36:13;99707.81;;;14.72;55.39
82951;BME280;72737;53.332;6.514;2024-01-15T00:38:39;99707.03;;;14.63;55.49
82951;BME280;72737;53.332;6.514;2024-01-15T00:41:05;99713.75;;;14.74;54.82
82951;BME280;72737;53.332;6.514;2024-01-15T00:43:30;99712.16;;;14.55;55.06
82951;BME280;72737;53.332;6.514;2024-01-15T00:45:55;99705.72;;;14.60;55.47
82951;BME280;72737;53.332;6.514;2024-01-15T00:48:21;99705.44;;;14.53;55.14
82951;BME280;72737;53.332;6.514;2024-01-15T00:50:46;99692.09;;;14.43;56.00
82951;BME280;72737;53.332;6.514;2024-01-15T00:53:12;99702.69;;;14.44;56.03
82951;BME280;72737;53.332;6.514;2024-01-15T00:55:37;99701.09;;;14.43;55.20
82951;BME280;72737;53.332;6.514;2024-01-15T00:58:03;99699.63;;;14.46;55.73
82951;BME280;72737;53.332;6.514;2024-01-15T01:00:29;99699.63;;;14.46;55.00
82951;BME280;72737;53.332;6.514;2024-01-15T01:02:54;99691.28;;;14.51;55.56
82951;BME280;72737;53.332;6.514;2024-01-15T01:05:19;99686.28;;;14.44;55.19
82951;BME280;72737;53.332;6.514;2024-01-15T01:07:45;99693.38;;;14.45;55.76
82951;BME280;72737;53.332;6.514;2024-01-15T01:10:10;99688.84;;;14.32;55.88
82951;BME280;72737;53.332;6.514;2024-01-15T01:12:35;99676.97;;;14.45;55.47
82951;BME280;72737;53.332;6.514;2024-01-15T01:15:01;99677.78;;;14.46;55.46
82951;BME280;72737;53.332;6.514;2024-01-15T01:17:28;99667.63;;;14.29;55.33
82951;BME280;72737;53.332;6.514;2024-01-15T01:19:53;99674.06;;;14.33;55.71
82951;BME280;72737;53.332;6.514;2024-01-15T01:22:18;99667.97;;;14.36;55.94
82951;BME280;72737;53.332;6.514;2024-01-15T01:24:44;99661.53;;;14.32;55.21
82951;BME280;72737;53.332;6.514;2024-01-15T01:27:09;99667.31;;;14.31;55.67
82951;BME280;72737;53.332;6.514;2024-01-15T01:29:35;99662.16;;;14.21;55.67
82951;BME280;72737;53.332;6.514;2024-01-15T01:32:00;99662.34;;;14.15;55.63
82951;BME280;72737;53.332;6.514;2024-01-15T01:34:25;99663.00;;;14.12;56.13
82951;BME280;72737;53.332;6.514;2024-01-15T01:36:51;99660.56;;;14.11;56.30
82951;BME280;72737;53.332;6.514;2024-01-15T01:39:16;99661.22;;;14.08;55.96
82951;BME280;72737;53.332;6.514;2024-01-15T01:41:42;99658.00;;;14.06;56.09
82951;BME280;72737;53.332;6.514;2024-01-15T01:44:07;99650.59;;;14.06;55.92
82951;BME280;72737;53.332;6.514;2024-01-15T01:46:34;99662.31;;;13.98;56.17
82951;BME280;72737;53.332;6.514;2024-01-15T01:49:05;99650.94;;;13.96;57.20
82951;BME280;72737;53.332;6.514;2024-01-15T01:51:31;99644.16;;;13.94;56.46
82951;BME280;72737;53.332;6.514;2024-01-15T01:53:58;99651.09;;;14.00;56.79
82951;BME280;72737;53.332;6.514;2024-01-15T01:56:23;99655.91;;;13.94;57.13
82951;BME280;72737;53.332;6.514;2024-01-15T01:58:49;99661.22;;;13.91;56.61
82951;BME280;72737;53.332;6.514;2024-01-15T02:01:15;99662.00;;;13.83;56.98
82951;BME280;72737;53.332;6.514;2024-01-15T02:03:40;99651.72;;;13.88;56.87
82951;BME280;72737;53.332;6.514;2024-01-15T02:06:06;99653.66;;;13.88;57.31
82951;BME280;72737;53.332;6.514;2024-01-15T02:08:32;99653.66;;;13.96;56.91
82951;BME280;72737;53.332;6.514;2024-01-15T02:10:57;99651.41;;;13.90;56.38
82951;BME280;72737;53.332;6.514;2024-01-15T02:13:23;99654.94;;;13.82;57.20
82951;BME280;72737;53.332;6.514;2024-01-15T02:15:48;99650.44;;;13.86;57.17
82951;BME280;72737;53.332;6.514;2024-01-15T02:18:14;99669.72;;;13.89;56.64
82951;BME280;72737;53.332;6.514;2024-01-15T02:20:39;99666.81;;;13.77;57.36
82951;BME280;72737;53.332;6.514;2024-01-15T02:23:09;99658.78;;;13.81;56.61
82951;BME280;72737;53.332;6.514;2024-01-15T02:25:37;99655.75;;;13.82;56.75
82951;BME280;72737;53.332;6.514;2024-01-15T02:28:04;99658.13;;;13.84;56.47
82951;BME280;72737;53.332;6.514;2024-01-15T02:30:30;99663.44;;;13.71;57.13
82951;BME280;72737;53.332;6.514;2024-01-15T02:32:55;99656.06;;;13.72;56.92
82951;BME280;72737;53.332;6.514;2024-01-15T02:35:20;99653.28;;;13.63;57.48
82951;BME280;72737;53.332;6.514;2024-01-15T02:37:46;99661.03;;;13.70;57.08
82951;BME280;72737;53.332;6.514;2024-01-15T02:40:11;99648.78;;;13.59;56.90
82951;BME280;72737;53.332;6.514;2024-01-15T02:42:36;99651.88;;;13.57;57.58
82951;BME280;72737;53.332;6.514;2024-01-15T02:45:02;99632.41;;;13.59;56.97
82951;BME280;72737;53.332;6.514;2024-01-15T02:47:27;99635.94;;;13.59;57.67
82951;BME280;72737;53.332;6.514;2024-01-15T02:49:53;99630.19;;;13.61;57.33
82951;BME280;72737;53.332;6.514;2024-01-15T02:52:18;99650.69;;;13.41;57.84
82951;BME280;72737;53.332;6.514;2024-01-15T02:54:43;99652.47;;;13.54;57.42
82951;BME280;72737;53.332;6.514;2024-01-15T02:57:09;99650.53;;;13.46;57.38
82951;BME280;72737;53.332;6.514;2024-01-15T02:59:34;99659.69;;;13.50;57.32
82951;BME280;72737;53.332;6.514;2024-01-15T03:01:59;99673.81;;;13.44;57.80
82951;BME280;72737;53.332;6.514;2024-01-15T03:04:24;99680.72;;;13.50;57.38
82951;BME280;72737;53.332;6.514;2024-01-15T03:06:50;99685.56;;;13.53;57.01
82951;BME280;72737;53.332;6.514;2024-01-15T03:09:15;99668.06;;;13.54;56.88
82951;BME280;72737;53.332;6.514;2024-01-15T03:11:40;99656.63;;;13.43;57.74
82951;BME280;72737;53.332;6.514;2024-01-15T03:14:06;99662.56;;;13.37;57.89
82951;BME280;72737;53.332;6.514;2024-01-15T03:16:31;99658.38;;;13.39;57.36
82951;BME280;72737;53.332;6.514;2024-01-15T03:18:57;99672.03;;;13.39;58.18
82951;BME280;72737;53.332;6.514;2024-01-15T03:21:22;99667.25;;;13.53;57.50
82951;BME280;72737;53.332;6.514;2024-01-15T03:23:47;99669.97;;;13.45;57.67
82951;BME280;72737;53.332;6.514;2024-01-15T03:26:13;99672.38;;;13.46;57.28
82951;BME280;72737;53.332;6.514;2024-01-15T03:28:38;99667.38;;;13.40;57.80
82951;BME280;72737;53.332;6.514;2024-01-15T03:31:03;99670.41;;;13.38;58.12
82951;BME280;72737;53.332;6.514;2024-01-15T03:33:29;99678.16;;;13.45;57.52
82951;BME280;72737;53.332;6.514;2024-01-15T03:35:54;99678.94;;;13.45;57.45
82951;BME280;72737;53.332;6.514;2024-01-15T03:38:19;99678.50;;;13.52;57.76
82951;BME280;72737;53.332;6.514;2024-01-15T03:40:45;99673.19;;;13.47;57.99
82951;BME280;72737;53.332;6.514;2024-01-15T03:43:10;99671.22;;;13.39;57.74
82951;BME280;72737;53.332;6.514;2024-01-15T03:45:35;99677.47;;;13.39;57.54
82951;BME280;72737;53.332;6.514;2024-01-15T03:48:01;99668.97;;;13.32;58.04
82951;BME280;72737;53.332;6.514;2024-01-15T03:50:26;99664.63;;;13.31;58.25
82951;BME280;72737;53.332;6.514;2024-01-15T03:52:51;99672.84;;;13.40;57.84
82951;BME280;72737;53.332;6.514;2024-01-15T03:55:17;99658.53;;;13.34;57.90
82951;BME280;72737;53.332;6.514;2024-01-15T03:57:42;99650.78;;;13.19;58.36
82951;BME280;72737;53.332;6.514;2024-01-15T04:00:08;99649.06;;;13.31;57.78
82951;BME280;72737;53.332;6.514;2024-01-15T04:02:33;99653.72;;;13.31;57.80
82951;BME280;72737;53.332;6.514;2024-01-15T04:04:59;99653.72;;;13.31;58.25
82951;BME280;72737;53.332;6.514;2024-01-15T04:07:24;99651.97;;;13.35;57.69
82951;BME280;72737;53.332;6.514;2024-01-15T04:09:49;99649.53;;;13.33;58.12
82951;BME280;72737;53.332;6.514;2024-01-15T04:12:15;99654.00;;;13.21;58.49
82951;BME280;72737;53.332;6.514;2024-01-15T04:14:40;99651.25;;;13.12;58.34
82951;BME280;72737;53.332;6.514;2024-01-15T04:17:05;99645.09;;;13.07;58.58
82951;BME280;72737;53.332;6.514;2024-01-15T04:19:31;99651.41;;;13.16;58.28
82951;BME280;72737;53.332;6.514;2024-01-15T04:21:56;99648.41;;;13.26;58.35
82951;BME280;72737;53.332;6.514;2024-01-15T04:24:22;99637.00;;;13.24;58.03
82951;BME280;72737;53.332;6.514;2024-01-15T04:26:47;99638.47;;;13.30;58.15
82951;BME280;72737;53.332;6.514;2024-01-15T04:29:12;99636.41;;;13.36;57.73
82951;BME280;72737;53.332;6.514;2024-01-15T04:31:38;99649.03;;;13.23;58.70
82951;BME280;72737;53.332;6.514;2024-01-15T04:34:03;99638.09;;;13.23;58.58
82951;BME280;72737;53.332;6.514;2024-01-15T04:36:28;99630.91;;;13.27;58.37
82951;BME280;72737;53.332;6.514;2024-01-15T04:38:54;99630.72;;;13.23;58.66
82951;BME280;72737;53.332;6.514;2024-01-15T04:41:19;99628.34;;;13.22;58.34
82951;BME280;72737;53.332;6.514;2024-01-15T04:43:45;99626.72;;;13.21;58.15
82951;BME280;72737;53.332;6.514;2024-01-15T04:46:10;99635.38;;;13.23;58.55
82951;BME280;72737;53.332;6.514;2024-01-15T04:48:36;99631.38;;;13.29;58.48
82951;BME280;72737;53.332;6.514;2024-01-15T04:51:04;99624.66;;;13.26;58.51
82951;BME280;72737;53.332;6.514;2024-01-15T04:53:29;99633.81;;;13.30;57.91
82951;BME280;72737;53.332;6.514;2024-01-15T04:55:55;99631.88;;;13.31;57.94
82951;BME280;72737;53.332;6.514;2024-01-15T04:58:20;99638.59;;;13.25;58.84
82951;BME280;72737;53.332;6.514;2024-01-15T05:00:46;99641.47;;;13.20;58.79
82951;BME280;72737;53.332;6.514;2024-01-15T05:03:11;99633.66;;;13.27;57.83
82951;BME280;72737;53.332;6.514;2024-01-15T05:05:36;99641.19;;;13.21;58.54
82951;BME280;72737;53.332;6.514;2024-01-15T05:08:02;99633.78;;;13.22;58.03
82951;BME280;72737;53.332;6.514;2024-01-15T05:10:27;99634.59;;;13.22;58.18
82951;BME280;72737;53.332;6.514;2024-01-15T05:12:53;99627.19;;;13.23;57.92
82951;BME280;72737;53.332;6.514;2024-01-15T05:15:18;99628.94;;;13.19;58.23
82951;BME280;72737;53.332;6.514;2024-01-15T05:17:43;99635.06;;;13.16;58.60
82951;BME280;72737;53.332;6.514;2024-01-15T05:20:09;99633.94;;;13.17;58.82
82951;BME280;72737;53.332;6.514;2024-01-15T05:22:35;99631.22;;;13.17;58.83
82951;BME280;72737;53.332;6.514;2024-01-15T05:25:00;99627.19;;;13.14;58.38
82951;BME280;72737;53.332;6.514;2024-01-15T05:27:25;99629.59;;;13.16;58.15
82951;BME280;72737;53.332;6.514;2024-01-15T05:29:51;99628.16;;;13.18;57.92
82951;BME280;72737;53.332;6.514;2024-01-15T05:32:16;99628.66;;;13.20;58.55
82951;BME280;72737;53.332;6.514;2024-01-15T05:34:41;99613.69;;;13.18;58.56
82951;BME280;72737;53.332;6.514;2024-01-15T05:37:07;99617.88;;;13.15;58.47
82951;BME280;72737;53.332;6.514;2024-01-15T05:39:32;99619.31;;;13.13;58.31
82951;BME280;72737;53.332;6.514;2024-01-15T05:41:58;99620.09;;;13.13;58.98
82951;BME280;72737;53.332;6.514;2024-01-15T05:44:23;99610.63;;;13.11;58.95
82951;BME280;72737;53.332;6.514;2024-01-15T05:46:49;99614.34;;;13.15;58.90
82951;BME280;72737;53.332;6.514;2024-01-15T05:49:14;99628.78;;;13.15;58.59
82951;BME280;72737;53.332;6.514;2024-01-15T05:51:39;99638.91;;;13.15;58.77
82951;BME280;72737;53.332;6.514;2024-01-15T05:54:05;99631.81;;;13.14;58.13
82951;BME280;72737;53.332;6.514;2024-01-15T05:56:31;99623.44;;;13.10;58.24
82951;BME280;72737;53.332;6.514;2024-01-15T05:58:56;99626.97;;;13.11;58.78
82951;BME280;72737;53.332;6.514;2024-01-15T06:01:21;99617.50;;;13.08;58.42
82951;BME280;72737;53.332;6.514;2024-01-15T06:03:47;99621.72;;;13.14;57.88
82951;BME280;72737;53.332;6.514;2024-01-15T06:06:12;99621.16;;;13.04;58.21
82951;BME280;72737;53.332;6.514;2024-01-15T06:08:37;99616.50;;;12.96;58.78
82951;BME280;72737;53.332;6.514;2024-01-15T06:11:03;99614.44;;;13.01;58.91
82951;BME280;72737;53.332;6.514;2024-01-15T06:13:28;99607.06;;;13.02;58.21
82951;BME280;72737;53.332;6.514;2024-01-15T06:15:54;99600.47;;;13.03;58.60
82951;BME280;72737;53.332;6.514;2024-01-15T06:18:19;99591.66;;;13.06;58.13
82951;BME280;72737;53.332;6.514;2024-01-15T06:20:44;99592.47;;;13.06;58.06
82951;BME280;72737;53.332;6.514;2024-01-15T06:23:10;99587.19;;;13.10;58.37
82951;BME280;72737;53.332;6.514;2024-01-15T06:25:35;99595.09;;;13.11;58.20
82951;BME280;72737;53.332;6.514;2024-01-15T06:28:00;99600.31;;;13.08;58.56
82951;BME280;72737;53.332;6.514;2024-01-15T06:30:26;99587.03;;;13.06;57.98
82951;BME280;72737;53.332;6.514;2024-01-15T06:32:51;99594.53;;;13.01;58.84
82951;BME280;72737;53.332;6.514;2024-01-15T06:35:17;99590.06;;;13.05;58.45
82951;BME280;72737;53.332;6.514;2024-01-15T06:37:42;99588.63;;;13.07;58.25
82951;BME280;72737;53.332;6.514;2024-01-15T06:40:08;99600.16;;;13.04;58.75
82951;BME280;72737;53.332;6.514;2024-01-15T06:42:34;99600.47;;;13.03;58.04
82951;BME280;72737;53.332;6.514;2024-01-15T06:44:59;99620.19;;;13.00;58.30
82951;BME280;72737;53.332;6.514;2024-01-15T06:47:24;99601.78;;;13.05;58.15
82951;BME280;72737;53.332;6.514;2024-01-15T06:49:50;99612.81;;;13.00;58.37
82951;BME280;72737;53.332;6.514;2024-01-15T06:52:16;99601.94;;;13.09;57.80
82951;BME280;72737;53.332;6.514;2024-01-15T06:54:42;99603.84;;;13.08;58.01
82951;BME280;72737;53.332;6.514;2024-01-15T06:57:07;99615.28;;;13.10;58.22
82951;BME280;72737;53.332;6.514;2024-01-15T06:59:34;99612.53;;;13.10;58.44
82951;BME280;72737;53.332;6.514;2024-01-15T07:02:00;99615.72;;;13.04;58.52
82951;BME280;72737;53.332;6.514;2024-01-15T07:04:26;99615.91;;;13.07;58.34
82951;BME280;72737;53.332;6.514;2024-01-15T07:06:51;99606.28;;;13.10;57.88
82951;BME280;72737;53.332;6.514;2024-01-15T07:09:16;99606.06;;;12.98;58.20
82951;BME280;72737;53.332;6.514;2024-01-15T07:11:45;99607.50;;;12.95;58.40
82951;BME280;72737;53.332;6.514;2024-01-15T07:14:12;99594.69;;;12.96;58.62
82951;BME280;72737;53.332;6.514;2024-01-15T07:16:37;99594.19;;;12.94;58.60
82951;BME280;72737;53.332;6.514;2024-01-15T07:19:02;99578.97;;;12.93;58.67
82951;BME280;72737;53.332;6.514;2024-01-15T07:21:28;99578.03;;;12.97;58.22
82951;BME280;72737;53.332;6.514;2024-01-15T07:23:53;99590.50;;;12.98;57.92
82951;BME280;72737;53.332;6.514;2024-01-15T07:26:19;99591.16;;;13.04;57.80
82951;BME280;72737;53.332;6.514;2024-01-15T07:28:44;99587.34;;;13.05;58.26
82951;BME280;72737;53.332;6.514;2024-01-15T07:31:09;99593.28;;;13.07;58.48
82951;BME280;72737;53.332;6.514;2024-01-15T07:33:35;99600.81;;;13.01;59.24
82951;BME280;72737;53.332;6.514;2024-01-15T07:36:00;99600.06;;;13.18;58.18
82951;BME280;72737;53.332;6.514;2024-01-15T07:38:26;99597.38;;;13.26;58.29
82951;BME280;72737;53.332;6.514;2024-01-15T07:40:52;99603.97;;;13.34;58.25
82951;BME280;72737;53.332;6.514;2024-01-15T07:43:19;99597.53;;;13.30;57.92
82951;BME280;72737;53.332;6.514;2024-01-15T07:45:44;99608.44;;;13.21;58.36
82951;BME280;72737;53.332;6.514;2024-01-15T07:48:10;99599.72;;;13.11;58.69
82951;BME280;72737;53.332;6.514;2024-01-15T07:50:35;99604.19;;;13.07;58.82
82951;BME280;72737;53.332;6.514;2024-01-15T07:53:01;99608.34;;;13.04;58.97
82951;BME280;72737;53.332;6.514;2024-01-15T07:55:26;99604.34;;;13.02;58.42
82951;BME280;72737;53.332;6.514;2024-01-15T07:57:52;99613.34;;;13.11;58.19
82951;BME280;72737;53.332;6.514;2024-01-15T08:00:19;99618.59;;;12.99;58.95
82951;BME280;72737;53.332;6.514;2024-01-15T08:02:44;99608.66;;;13.03;58.79
82951;BME280;72737;53.332;6.514;2024-01-15T08:05:09;99597.56;;;12.99;58.36
82951;BME280;72737;53.332;6.514;2024-01-15T08:07:34;99603.84;;;13.00;58.57
82951;BME280;72737;53.332;6.514;2024-01-15T08:10:00;99605.63;;;13.04;58.68
82951;BME280;72737;53.332;6.514;2024-01-15T08:12:25;99593.91;;;13.04;58.16
82951;BME280;72737;53.332;6.514;2024-01-15T08:14:51;99593.75;;;13.09;57.93
82951;BME280;72737;53.332;6.514;2024-01-15T08:17:16;99593.28;;;13.07;58.04
82951;BME280;72737;53.332;6.514;2024-01-15T08:19:42;99601.09;;;13.00;58.21
82951;BME280;72737;53.332;6.514;2024-01-15T08:22:08;99606.88;;;12.98;58.74
82951;BME280;72737;53.332;6.514;2024-01-15T08:24:33;99603.19;;;13.03;58.11
82951;BME280;72737;53.332;6.514;2024-01-15T08:26:58;99605.91;;;13.03;58.30
82951;BME280;72737;53.332;6.514;2024-01-15T08:29:24;99608.19;;;13.01;58.30
82951;BME280;72737;53.332;6.514;2024-01-15T08:31:50;99609.78;;;13.02;58.73
82951;BME280;72737;53.332;6.514;2024-01-15T08:34:15;99618.41;;;12.95;58.98
82951;BME280;72737;53.332;6.514;2024-01-15T08:36:40;99619.88;;;12.93;59.07
82951;BME280;72737;53.332;6.514;2024-01-15T08:39:06;99625.47;;;12.87;58.80
82951;BME280;72737;53.332;6.514;2024-01-15T08:41:34;99611.34;;;12.94;59.05
82951;BME280;72737;53.332;6.514;2024-01-15T08:44:00;99610.53;;;12.94;58.94
82951;BME280;72737;53.332;6.514;2024-01-15T08:46:26;99606.41;;;12.96;58.62
82951;BME280;72737;53.332;6.514;2024-01-15T08:48:51;99590.34;;;12.95;58.96
82951;BME280;72737;53.332;6.514;2024-01-15T08:51:17;99592.09;;;12.90;59.17
82951;BME280;72737;53.332;6.514;2024-01-15T08:53:44;99599.75;;;13.28;58.91
82951;BME280;72737;53.332;6.514;2024-01-15T08:56:09;99592.91;;;13.39;58.22
82951;BME280;72737;53.332;6.514;2024-01-15T08:58:35;99590.47;;;13.29;58.32
82951;BME280;72737;53.332;6.514;2024-01-15T09:01:00;99601.22;;;13.25;58.63
82951;BME280;72737;53.332;6.514;2024-01-15T09:03:25;99606.97;;;13.24;58.93
82951;BME280;72737;53.332;6.514;2024-01-15T09:05:51;99617.91;;;13.24;58.87
82951;BME280;72737;53.332;6.514;2024-01-15T09:08:16;99617.91;;;13.24;58.73
82951;BME280;72737;53.332;6.514;2024-01-15T09:10:41;99627.03;;;13.28;58.87
82951;BME280;72737;53.332;6.514;2024-01-15T09:13:07;99609.91;;;13.27;59.16
82951;BME280;72737;53.332;6.514;2024-01-15T09:15:33;99610.69;;;13.28;58.82
82951;BME280;72737;53.332;6.514;2024-01-15T09:17:59;99600.25;;;13.30;58.80
82951;BME280;72737;53.332;6.514;2024-01-15T09:20:24;99600.56;;;13.28;59.48
82951;BME280;72737;53.332;6.514;2024-01-15T09:22:51;99599.47;;;13.29;59.11
82951;BME280;72737;53.332;6.514;2024-01-15T09:25:16;99587.44;;;13.30;59.11
82951;BME280;72737;53.332;6.514;2024-01-15T09:27:42;99591.44;;;13.33;59.04
82951;BME280;72737;53.332;6.514;2024-01-15T09:30:07;99593.03;;;13.34;59.75
82951;BME280;72737;53.332;6.514;2024-01-15T09:32:33;99595.63;;;13.30;59.67
82951;BME280;72737;53.332;6.514;2024-01-15T09:34:59;99596.56;;;13.35;59.33
82951;BME280;72737;53.332;6.514;2024-01-15T09:37:24;99597.69;;;13.33;59.84
82951;BME280;72737;53.332;6.514;2024-01-15T09:39:50;99600.13;;;13.35;59.89
82951;BME280;72737;53.332;6.514;2024-01-15T09:42:15;99604.47;;;13.36;59.89
82951;BME280;72737;53.332;6.514;2024-01-15T09:44:41;99608.31;;;13.35;59.64
82951;BME280;72737;53.332;6.514;2024-01-15T09:47:07;99596.88;;;13.33;60.18
82951;BME280;72737;53.332;6.514;2024-01-15T09:49:33;99601.22;;;13.34;59.97
82951;BME280;72737;53.332;6.514;2024-01-15T09:51:59;99593.03;;;13.34;59.44
82951;BME280;72737;53.332;6.514;2024-01-15T09:54:25;99598.50;;;13.34;59.55
82951;BME280;72737;53.332;6.514;2024-01-15T09:56:51;99598.50;;;13.34;59.63
82951;BME280;72737;53.332;6.514;2024-01-15T09:59:17;99593.38;;;13.32;60.25
82951;BME280;72737;53.332;6.514;2024-01-15T10:01:44;99605.06;;;13.33;60.43
82951;BME280;72737;53.332;6.514;2024-01-15T10:04:11;99611.69;;;13.32;59.92
82951;BME280;72737;53.332;6.514;2024-01-15T10:06:38;99608.94;;;13.32;59.81
82951;BME280;72737;53.332;6.514;2024-01-15T10:09:04;99599.16;;;13.31;60.29
82951;BME280;72737;53.332;6.514;2024-01-15T10:11:30;99598.34;;;13.30;60.18
82951;BME280;72737;53.332;6.514;2024-01-15T10:13:57;99589.34;;;13.30;60.11
82951;BME280;72737;53.332;6.514;2024-01-15T10:16:22;99593.69;;;13.31;60.62
82951;BME280;72737;53.332;6.514;2024-01-15T10:18:49;99589.84;;;13.32;59.96
82951;BME280;72737;53.332;6.514;2024-01-15T10:21:14;99590.66;;;13.32;60.47
82951;BME280;72737;53.332;6.514;2024-01-15T10:23:41;99582.94;;;13.26;60.44
82951;BME280;72737;53.332;6.514;2024-01-15T10:26:06;99589.50;;;13.25;60.15
82951;BME280;72737;53.332;6.514;2024-01-15T10:28:32;99589.66;;;13.28;60.29
82951;BME280;72737;53.332;6.514;2024-01-15T10:30:58;99584.19;;;13.28;61.10
82951;BME280;72737;53.332;6.514;2024-01-15T10:33:24;99592.72;;;13.27;60.35
82951;BME280;72737;53.332;6.514;2024-01-15T10:36:00;99602.84;;;13.26;61.04
82951;BME280;72737;53.332;6.514;2024-01-15T10:38:27;99605.72;;;13.21;60.81
82951;BME280;72737;53.332;6.514;2024-01-15T10:40:55;99611.31;;;13.25;60.68
82951;BME280;72737;53.332;6.514;2024-01-15T10:43:22;99605.06;;;13.24;60.67
82951;BME280;72737;53.332;6.514;2024-01-15T10:45:49;99598.81;;;13.24;61.16
82951;BME280;72737;53.332;6.514;2024-01-15T10:48:17;99595.09;;;13.20;61.31
82951;BME280;72737;53.332;6.514;2024-01-15T10:50:46;99611.16;;;13.21;60.83
82951;BME280;72737;53.332;6.514;2024-01-15T10:53:13;99598.50;;;13.34;62.58
82951;BME280;72737;53.332;6.514;2024-01-15T10:55:41;99601.13;;;13.56;62.33
82951;BME280;72737;53.332;6.514;2024-01-15T10:58:07;99614.75;;;13.48;61.51
82951;BME280;72737;53.332;6.514;2024-01-15T11:00:34;99608.16;;;13.40;61.81
82951;BME280;72737;53.332;6.514;2024-01-15T11:03:00;99608.00;;;13.37;61.74
82951;BME280;72737;53.332;6.514;2024-01-15T11:05:26;99614.88;;;13.34;61.07
82951;BME280;72737;53.332;6.514;2024-01-15T11:07:55;99604.91;;;13.38;60.85
82951;BME280;72737;53.332;6.514;2024-01-15T11:10:52;99607.81;;;13.33;60.68
82951;BME280;72737;53.332;6.514;2024-01-15T11:13:21;99603.13;;;13.25;61.05
82951;BME280;72737;53.332;6.514;2024-01-15T11:15:58;99612.59;;;13.19;60.92
82951;BME280;72737;53.332;6.514;2024-01-15T11:18:27;99612.72;;;13.14;61.22
82951;BME280;72737;53.332;6.514;2024-01-15T11:23:46;99613.53;;;13.14;61.06
82951;BME280;72737;53.332;6.514;2024-01-15T11:28:59;99612.25;;;13.12;61.18
82951;BME280;72737;53.332;6.514;2024-01-15T11:34:14;99627.34;;;13.18;61.13
82951;BME280;72737;53.332;6.514;2024-01-15T11:41:52;99643.34;;;13.11;61.73
82951;BME280;72737;53.332;6.514;2024-01-15T11:44:17;99645.47;;;13.14;61.13
82951;BME280;72737;53.332;6.514;2024-01-15T11:46:59;99652.94;;;13.08;60.72
82951;BME280;72737;53.332;6.514;2024-01-15T11:52:19;99662.59;;;13.06;61.47
82951;BME280;72737;53.332;6.514;2024-01-15T11:57:23;99657.50;;;13.13;61.31
82951;BME280;72737;53.332;6.514;2024-01-15T11:59:50;99654.97;;;13.16;60.83
82951;BME280;72737;53.332;6.514;2024-01-15T12:02:16;99658.91;;;13.10;61.32
82951;BME280;72737;53.332;6.514;2024-01-15T12:04:41;99667.28;;;13.14;61.09
82951;BME280;72737;53.332;6.514;2024-01-15T12:07:07;99668.25;;;13.18;60.77
82951;BME280;72737;53.332;6.514;2024-01-15T12:09:33;99672.13;;;13.17;61.06
82951;BME280;72737;53.332;6.514;2024-01-15T12:12:05;99669.41;;;13.17;61.44
82951;BME280;72737;53.332;6.514;2024-01-15T12:14:32;99682.69;;;13.18;60.80
82951;BME280;72737;53.332;6.514;2024-01-15T12:16:59;99674.53;;;13.18;60.84
82951;BME280;72737;53.332;6.514;2024-01-15T12:19:25;99668.50;;;13.08;61.26
82951;BME280;72737;53.332;6.514;2024-01-15T12:21:51;99674.28;;;13.06;61.81
82951;BME280;72737;53.332;6.514;2024-01-15T12:24:17;99683.75;;;13.09;61.57
82951;BME280;72737;53.332;6.514;2024-01-15T12:26:42;99682.66;;;13.10;61.59
82951;BME280;72737;53.332;6.514;2024-01-15T12:29:10;99670.94;;;13.09;61.03
82951;BME280;72737;53.332;6.514;2024-01-15T12:31:36;99685.91;;;13.12;60.85
82951;BME280;72737;53.332;6.514;2024-01-15T12:34:01;99686.19;;;13.10;61.29
82951;BME280;72737;53.332;6.514;2024-01-15T12:36:30;99688.25;;;13.05;61.21
82951;BME280;72737;53.332;6.514;2024-01-15T12:38:59;99692.34;;;12.94;61.35
82951;BME280;72737;53.332;6.514;2024-01-15T12:41:24;99696.22;;;12.93;61.01
82951;BME280;72737;53.332;6.514;2024-01-15T12:43:50;99695.44;;;13.01;59.89
82951;BME280;72737;53.332;6.514;2024-01-15T12:46:16;99706.75;;;12.85;60.50
82951;BME280;72737;53.332;6.514;2024-01-15T12:48:41;99698.31;;;12.96;60.10
82951;BME280;72737;53.332;6.514;2024-01-15T12:51:08;99703.47;;;12.97;60.77
82951;BME280;72737;53.332;6.514;2024-01-15T12:53:33;99697.81;;;12.94;60.86
82951;BME280;72737;53.332;6.514;2024-01-15T12:55:58;99700.72;;;12.97;60.64
82951;BME280;72737;53.332;6.514;2024-01-15T12:58:24;99705.84;;;12.99;61.21
82951;BME280;72737;53.332;6.514;2024-01-15T13:00:49;99708.09;;;12.97;60.76
82951;BME280;72737;53.332;6.514;2024-01-15T13:03:15;99708.28;;;13.00;60.97
82951;BME280;72737;53.332;6.514;2024-01-15T13:05:41;99710.19;;;13.00;61.27
82951;BME280;72737;53.332;6.514;2024-01-15T13:08:06;99732.53;;;13.02;61.41
82951;BME280;72737;53.332;6.514;2024-01-15T13:10:32;99733.63;;;13.01;61.06
82951;BME280;72737;53.332;6.514;2024-01-15T13:12:57;99732.94;;;12.95;61.50